sensor_id;sensor_type;location;lat;lon;timestamp;pressure;altitude;pressure_sealevel;temperature;humidity
11077;BME280;5591;42.626;23.380;2022-09-30T00:02:12;93824.09;;;16.63;100.00
11077;BME280;5591;42.626;23.380;2022-09-30T00:04:39;93835.38;;;16.98;100.00
11077;BME280;5591;42.626;23.380;2022-09-30T00:07:06;93844.31;;;17.08;100.00
11077;BME280;5591;42.626;23.380;2022-09-30T00:09:32;93833.81;;;17.13;100.00
11077;BME280;5591;42.626;23.380;2022-09-30T00:11:59;93850.28;;;17.15;100.00
11077;BME280;5591;42.626;23.380;2022-09-30T00:14:28;93851.13;;;17.16;100.00
11077;BME280;5591;42.626;23.380;2022-09-30T00:16:54;93858.28;;;16.76;100.00
11077;BME280;5591;42.626;23.380;2022-09-30T00:19:21;93843.56;;;16.57;100.00
11077;BME280;5591;42.626;23.380;2022-09-30T00:21:48;93834.97;;;16.89;100.00
11077;BME280;5591;42.626;23.380;2022-09-30T00:24:15;93849.19;;;17.00;100.00
11077;BME280;5591;42.626;23.380;2022-09-30T00:26:41;93849.47;;;16.98;100.00
11077;BME280;5591;42.626;23.380;2022-09-30T00:29:09;93844.16;;;16.98;100.00
11077;BME280;5591;42.626;23.380;2022-09-30T00:31:38;93851.78;;;16.95;100.00
11077;BME280;5591;42.626;23.380;2022-09-30T00:34:04;93782.06;;;16.55;100.00
11077;BME280;5591;42.626;23.380;2022-09-30T00:36:39;93871.81;;;16.91;100.00
11077;BME280;5591;42.626;23.380;2022-09-30T00:39:10;93844.72;;;16.38;100.00
11077;BME280;5591;42.626;23.380;2022-09-30T00:41:37;93851.41;;;16.40;100.00
11077;BME280;5591;42.626;23.380;2022-09-30T00:47:24;93820.69;;;16.05;100.00
11077;BME280;5591;42.626;23.380;2022-09-30T00:49:54;93830.44;;;16.27;100.00
11077;BME280;5591;42.626;23.380;2022-09-30T00:52:23;93835.63;;;16.34;100.00
11077;BME280;5591;42.626;23.380;2022-09-30T00:54:51;93845.53;;;16.50;100.00
11077;BME280;5591;42.626;23.380;2022-09-30T00:57:19;93835.06;;;15.97;100.00
11077;BME280;5591;42.626;23.380;2022-09-30T00:59:49;93849.69;;;16.23;100.00
11077;BME280;5591;42.626;23.380;2022-09-30T01:02:18;93835.97;;;16.26;100.00
11077;BME280;5591;42.626;23.380;2022-09-30T01:04:45;93836.66;;;16.33;100.00
11077;BME280;5591;42.626;23.380;2022-09-30T01:07:13;93847.81;;;16.35;100.00
11077;BME280;5591;42.626;23.380;2022-09-30T01:09:41;93836.91;;;16.20;100.00
11077;BME280;5591;42.626;23.380;2022-09-30T01:12:11;93844.75;;;16.03;100.00
11077;BME280;5591;42.626;23.380;2022-09-30T01:14:39;93835.19;;;16.14;100.00
11077;BME280;5591;42.626;23.380;2022-09-30T01:17:10;93847.59;;;16.25;100.00
11077;BME280;5591;42.626;23.380;2022-09-30T01:22:39;93850.63;;;16.05;100.00
11077;BME280;5591;42.626;23.380;2022-09-30T01:25:30;93851.16;;;15.96;100.00
11077;BME280;5591;42.626;23.380;2022-09-30T01:28:27;93840.09;;;15.64;100.00
11077;BME280;5591;42.626;23.380;2022-09-30T01:31:07;93837.81;;;15.79;100.00
11077;BME280;5591;42.626;23.380;2022-09-30T01:33:44;93840.56;;;15.61;100.00
11077;BME280;5591;42.626;23.380;2022-09-30T01:36:23;93841.13;;;15.52;100.00
11077;BME280;5591;42.626;23.380;2022-09-30T01:39:02;93845.88;;;15.61;100.00
11077;BME280;5591;42.626;23.380;2022-09-30T01:41:38;93833.75;;;15.42;100.00
11077;BME280;5591;42.626;23.380;2022-09-30T01:44:11;93819.03;;;15.35;100.00
11077;BME280;5591;42.626;23.380;2022-09-30T01:46:43;93836.63;;;15.52;100.00
11077;BME280;5591;42.626;23.380;2022-09-30T01:49:18;93850.09;;;15.51;100.00
11077;BME280;5591;42.626;23.380;2022-09-30T01:51:55;93840.44;;;15.45;100.00
11077;BME280;5591;42.626;23.380;2022-09-30T01:54:28;93851.13;;;15.50;100.00
11077;BME280;5591;42.626;23.380;2022-09-30T01:57:01;93851.91;;;15.39;100.00
11077;BME280;5591;42.626;23.380;2022-09-30T01:59:33;93843.50;;;15.42;100.00
11077;BME280;5591;42.626;23.380;2022-09-30T02:02:05;93848.00;;;15.41;100.00
11077;BME280;5591;42.626;23.380;2022-09-30T02:04:38;93852.34;;;15.36;100.00
11077;BME280;5591;42.626;23.380;2022-09-30T02:07:10;93849.41;;;15.26;100.00
11077;BME280;5591;42.626;23.380;2022-09-30T02:09:41;93845.81;;;15.38;100.00
11077;BME280;5591;42.626;23.380;2022-09-30T02:12:14;93827.75;;;15.35;100.00
11077;BME280;5591;42.626;23.380;2022-09-30T02:14:45;93846.88;;;15.49;100.00
11077;BME280;5591;42.626;23.380;2022-09-30T02:17:18;93855.78;;;15.36;100.00
11077;BME280;5591;42.626;23.380;2022-09-30T02:19:49;93853.88;;;15.43;100.00
11077;BME280;5591;42.626;23.380;2022-09-30T02:22:21;93834.53;;;15.02;100.00
11077;BME280;5591;42.626;23.380;2022-09-30T02:24:54;93870.66;;;15.19;100.00
11077;BME280;5591;42.626;23.380;2022-09-30T02:27:24;93847.81;;;15.25;100.00
11077;BME280;5591;42.626;23.380;2022-09-30T02:29:56;93856.41;;;15.20;100.00
11077;BME280;5591;42.626;23.380;2022-09-30T02:32:29;93871.81;;;15.23;100.00
11077;BME280;5591;42.626;23.380;2022-09-30T02:35:02;93864.91;;;15.22;100.00
11077;BME280;5591;42.626;23.380;2022-09-30T02:37:33;93863.06;;;14.93;100.00
11077;BME280;5591;42.626;23.380;2022-09-30T02:40:05;93862.28;;;15.22;100.00
11077;BME280;5591;42.626;23.380;2022-09-30T02:42:34;93845.47;;;15.17;100.00
11077;BME280;5591;42.626;23.380;2022-09-30T02:45:04;93854.13;;;15.24;100.00
11077;BME280;5591;42.626;23.380;2022-09-30T02:47:44;93862.47;;;15.09;100.00
11077;BME280;5591;42.626;23.380;2022-09-30T02:50:17;93850.72;;;14.76;100.00
11077;BME280;5591;42.626;23.380;2022-09-30T02:52:54;93838.13;;;15.19;100.00
11077;BME280;5591;42.626;23.380;2022-09-30T02:55:30;93843.13;;;14.98;100.00
11077;BME280;5591;42.626;23.380;2022-09-30T02:58:05;93854.53;;;15.09;100.00
11077;BME280;5591;42.626;23.380;2022-09-30T03:00:35;93857.88;;;14.87;100.00
11077;BME280;5591;42.626;23.380;2022-09-30T03:03:06;93853.69;;;14.98;100.00
11077;BME280;5591;42.626;23.380;2022-09-30T03:05:36;93868.13;;;15.13;100.00
11077;BME280;5591;42.626;23.380;2022-09-30T03:08:03;93867.56;;;14.93;100.00
11077;BME280;5591;42.626;23.380;2022-09-30T03:10:30;93864.88;;;15.11;100.00
11077;BME280;5591;42.626;23.380;2022-09-30T03:13:11;93880.72;;;15.11;100.00
11077;BME280;5591;42.626;23.380;2022-09-30T03:15:53;93884.13;;;15.00;100.00
11077;BME280;5591;42.626;23.380;2022-09-30T03:18:39;93884.31;;;15.16;100.00
11077;BME280;5591;42.626;23.380;2022-09-30T03:21:17;93883.88;;;15.19;100.00
11077;BME280;5591;42.626;23.380;2022-09-30T03:24:07;93881.34;;;15.13;100.00
11077;BME280;5591;42.626;23.380;2022-09-30T03:26:45;93889.03;;;15.14;100.00
11077;BME280;5591;42.626;23.380;2022-09-30T03:29:23;93880.69;;;14.99;100.00
11077;BME280;5591;42.626;23.380;2022-09-30T03:32:27;93880.69;;;14.99;100.00
11077;BME280;5591;42.626;23.380;2022-09-30T03:36:03;60683.16;;;-140.62;100.00
11077;BME280;5591;42.626;23.380;2022-09-30T03:39:36;60683.16;;;-140.62;100.00
11077;BME280;5591;42.626;23.380;2022-09-30T03:43:10;60683.16;;;-140.62;100.00
11077;BME280;5591;42.626;23.380;2022-09-30T03:46:21;93880.69;;;14.99;100.00
11077;BME280;5591;42.626;23.380;2022-09-30T03:48:52;93893.25;;;15.04;100.00
11077;BME280;5591;42.626;23.380;2022-09-30T03:51:22;93892.69;;;15.13;100.00
11077;BME280;5591;42.626;23.380;2022-09-30T03:53:49;93905.03;;;15.19;100.00
11077;BME280;5591;42.626;23.380;2022-09-30T03:56:23;93901.28;;;15.09;100.00
11077;BME280;5591;42.626;23.380;2022-09-30T03:58:51;93895.25;;;14.91;100.00
11077;BME280;5591;42.626;23.380;2022-09-30T04:01:18;93904.09;;;15.14;100.00
11077;BME280;5591;42.626;23.380;2022-09-30T04:03:46;93887.31;;;15.38;100.00
11077;BME280;5591;42.626;23.380;2022-09-30T04:06:17;93906.03;;;15.36;100.00
11077;BME280;5591;42.626;23.380;2022-09-30T04:08:45;93893.31;;;15.45;100.00
11077;BME280;5591;42.626;23.380;2022-09-30T04:11:12;93899.88;;;15.54;100.00
11077;BME280;5591;42.626;23.380;2022-09-30T04:13:39;93904.31;;;15.71;100.00
11077;BME280;5591;42.626;23.380;2022-09-30T04:16:07;93898.03;;;15.25;100.00
11077;BME280;5591;42.626;23.380;2022-09-30T04:18:34;93900.13;;;15.23;100.00
11077;BME280;5591;42.626;23.380;2022-09-30T04:21:05;93897.38;;;15.29;100.00
11077;BME280;5591;42.626;23.380;2022-09-30T04:23:34;93895.97;;;15.27;100.00
11077;BME280;5591;42.626;23.380;2022-09-30T04:26:02;93886.72;;;14.89;100.00
11077;BME280;5591;42.626;23.380;2022-09-30T04:28:29;93887.41;;;15.13;100.00
11077;BME280;5591;42.626;23.380;2022-09-30T04:30:58;93894.66;;;15.36;100.00
11077;BME280;5591;42.626;23.380;2022-09-30T04:33:25;93891.25;;;15.47;100.00
11077;BME280;5591;42.626;23.380;2022-09-30T04:35:53;93901.53;;;15.66;100.00
11077;BME280;5591;42.626;23.380;2022-09-30T06:16:39;94006.25;;;17.53;100.00
11077;BME280;5591;42.626;23.380;2022-09-30T06:19:05;94014.94;;;17.76;100.00
11077;BME280;5591;42.626;23.380;2022-09-30T06:21:32;94029.16;;;17.98;100.00
11077;BME280;5591;42.626;23.380;2022-09-30T06:23:59;94034.09;;;18.34;100.00
11077;BME280;5591;42.626;23.380;2022-09-30T06:26:26;94029.22;;;18.42;100.00
11077;BME280;5591;42.626;23.380;2022-09-30T06:28:53;94021.56;;;18.18;100.00
11077;BME280;5591;42.626;23.380;2022-09-30T06:31:22;94024.28;;;18.06;100.00
11077;BME280;5591;42.626;23.380;2022-09-30T06:33:52;94042.91;;;18.23;100.00
11077;BME280;5591;42.626;23.380;2022-09-30T06:36:19;94045.72;;;18.44;100.00
11077;BME280;5591;42.626;23.380;2022-09-30T06:38:47;94020.38;;;17.97;100.00
11077;BME280;5591;42.626;23.380;2022-09-30T06:41:15;94024.13;;;18.41;100.00
11077;BME280;5591;42.626;23.380;2022-09-30T06:43:42;94037.47;;;18.01;100.00
11077;BME280;5591;42.626;23.380;2022-09-30T06:46:09;94041.41;;;18.27;100.00
11077;BME280;5591;42.626;23.380;2022-09-30T06:48:36;94053.03;;;18.70;100.00
11077;BME280;5591;42.626;23.380;2022-09-30T06:51:05;94050.31;;;18.82;100.00
11077;BME280;5591;42.626;23.380;2022-09-30T06:53:34;94053.28;;;19.02;100.00
11077;BME280;5591;42.626;23.380;2022-09-30T06:56:01;94067.53;;;19.12;100.00
11077;BME280;5591;42.626;23.380;2022-09-30T06:58:29;94076.34;;;19.29;100.00
11077;BME280;5591;42.626;23.380;2022-09-30T07:00:56;94070.28;;;19.17;100.00
11077;BME280;5591;42.626;23.380;2022-09-30T07:03:25;94081.03;;;18.89;100.00
11077;BME280;5591;42.626;23.380;2022-09-30T07:05:55;94065.44;;;18.48;100.00
11077;BME280;5591;42.626;23.380;2022-09-30T07:08:25;94072.53;;;18.92;100.00
11077;BME280;5591;42.626;23.380;2022-09-30T07:10:54;94075.78;;;19.27;100.00
11077;BME280;5591;42.626;23.380;2022-09-30T07:13:21;94013.97;;;18.38;100.00
11077;BME280;5591;42.626;23.380;2022-09-30T07:15:48;94095.06;;;19.18;100.00
11077;BME280;5591;42.626;23.380;2022-09-30T07:18:16;94093.41;;;19.50;100.00
11077;BME280;5591;42.626;23.380;2022-09-30T07:20:49;94108.84;;;19.69;100.00
11077;BME280;5591;42.626;23.380;2022-09-30T07:23:16;94098.00;;;19.54;100.00
11077;BME280;5591;42.626;23.380;2022-09-30T07:25:52;94050.56;;;17.91;100.00
11077;BME280;5591;42.626;23.380;2022-09-30T07:28:21;94100.19;;;18.91;100.00
11077;BME280;5591;42.626;23.380;2022-09-30T07:30:52;94107.78;;;18.99;100.00
11077;BME280;5591;42.626;23.380;2022-09-30T07:33:20;94134.00;;;19.07;100.00
11077;BME280;5591;42.626;23.380;2022-09-30T07:35:51;94116.63;;;19.54;100.00
11077;BME280;5591;42.626;23.380;2022-09-30T07:38:20;94118.34;;;19.44;100.00
11077;BME280;5591;42.626;23.380;2022-09-30T07:40:53;94121.91;;;19.16;100.00
11077;BME280;5591;42.626;23.380;2022-09-30T07:43:21;94112.88;;;18.84;100.00
11077;BME280;5591;42.626;23.380;2022-09-30T07:45:48;94108.09;;;18.86;100.00
11077;BME280;5591;42.626;23.380;2022-09-30T07:48:16;94110.03;;;18.74;100.00
11077;BME280;5591;42.626;23.380;2022-09-30T07:50:56;94109.16;;;19.02;100.00
11077;BME280;5591;42.626;23.380;2022-09-30T07:53:23;94091.88;;;19.54;100.00
11077;BME280;5591;42.626;23.380;2022-09-30T08:03:30;94086.03;;;20.16;100.00
11077;BME280;5591;42.626;23.380;2022-09-30T08:06:02;94117.88;;;20.54;100.00
11077;BME280;5591;42.626;23.380;2022-09-30T08:08:29;94115.78;;;19.32;100.00
11077;BME280;5591;42.626;23.380;2022-09-30T08:10:57;94126.34;;;19.44;100.00
11077;BME280;5591;42.626;23.380;2022-09-30T08:13:24;94147.31;;;20.16;100.00
11077;BME280;5591;42.626;23.380;2022-09-30T08:15:51;94139.59;;;20.62;100.00
11077;BME280;5591;42.626;23.380;2022-09-30T08:18:18;94132.94;;;20.91;100.00
11077;BME280;5591;42.626;23.380;2022-09-30T08:20:46;94158.00;;;21.17;100.00
11077;BME280;5591;42.626;23.380;2022-09-30T08:23:13;94152.00;;;20.78;100.00
11077;BME280;5591;42.626;23.380;2022-09-30T08:25:40;94169.44;;;20.86;100.00
11077;BME280;5591;42.626;23.380;2022-09-30T08:28:06;94174.94;;;21.32;100.00
11077;BME280;5591;42.626;23.380;2022-09-30T08:30:33;94173.31;;;21.26;100.00
11077;BME280;5591;42.626;23.380;2022-09-30T08:33:00;94173.13;;;21.06;100.00
11077;BME280;5591;42.626;23.380;2022-09-30T08:35:27;94177.13;;;21.35;100.00
11077;BME280;5591;42.626;23.380;2022-09-30T08:37:55;94179.44;;;21.58;100.00
11077;BME280;5591;42.626;23.380;2022-09-30T08:40:25;94174.94;;;22.00;100.00
11077;BME280;5591;42.626;23.380;2022-09-30T08:43:07;94166.94;;;22.05;100.00
11077;BME280;5591;42.626;23.380;2022-09-30T08:45:42;94186.16;;;22.02;100.00
11077;BME280;5591;42.626;23.380;2022-09-30T08:48:37;94173.84;;;22.48;100.00
11077;BME280;5591;42.626;23.380;2022-09-30T08:51:12;94176.78;;;22.46;100.00
11077;BME280;5591;42.626;23.380;2022-09-30T08:53:47;94180.28;;;22.52;100.00
11077;BME280;5591;42.626;23.380;2022-09-30T08:56:20;94185.22;;;21.82;100.00
11077;BME280;5591;42.626;23.380;2022-09-30T08:58:50;94185.50;;;22.27;100.00
11077;BME280;5591;42.626;23.380;2022-09-30T09:01:23;94179.50;;;22.56;100.00
11077;BME280;5591;42.626;23.380;2022-09-30T09:03:52;94183.25;;;22.55;100.00
11077;BME280;5591;42.626;23.380;2022-09-30T09:06:26;94193.00;;;22.35;100.00
11077;BME280;5591;42.626;23.380;2022-09-30T09:12:09;94186.56;;;22.87;100.00
11077;BME280;5591;42.626;23.380;2022-09-30T09:14:47;94201.66;;;23.18;100.00
11077;BME280;5591;42.626;23.380;2022-09-30T09:17:37;94203.81;;;23.71;100.00
11077;BME280;5591;42.626;23.380;2022-09-30T09:20:12;94195.50;;;23.47;100.00
11077;BME280;5591;42.626;23.380;2022-09-30T09:22:40;94191.47;;;23.55;100.00
11077;BME280;5591;42.626;23.380;2022-09-30T09:25:12;94199.50;;;23.25;100.00
11077;BME280;5591;42.626;23.380;2022-09-30T09:27:48;94194.97;;;23.35;100.00
11077;BME280;5591;42.626;23.380;2022-09-30T09:30:19;94196.56;;;23.51;100.00
11077;BME280;5591;42.626;23.380;2022-09-30T09:32:50;94198.97;;;23.58;100.00
11077;BME280;5591;42.626;23.380;2022-09-30T09:35:26;94216.69;;;23.74;100.00
11077;BME280;5591;42.626;23.380;2022-09-30T09:37:59;94213.19;;;24.03;100.00
11077;BME280;5591;42.626;23.380;2022-09-30T09:40:51;94203.78;;;24.16;100.00
11077;BME280;5591;42.626;23.380;2022-09-30T09:43:29;94202.44;;;24.28;100.00
11077;BME280;5591;42.626;23.380;2022-09-30T09:46:03;94209.16;;;24.16;100.00
11077;BME280;5591;42.626;23.380;2022-09-30T09:48:34;94213.06;;;24.63;100.00
11077;BME280;5591;42.626;23.380;2022-09-30T09:51:05;94216.31;;;24.60;100.00
11077;BME280;5591;42.626;23.380;2022-09-30T09:53:48;94199.38;;;24.65;100.00
11077;BME280;5591;42.626;23.380;2022-09-30T09:56:18;94211.44;;;24.72;100.00
11077;BME280;5591;42.626;23.380;2022-09-30T09:59:10;94158.34;;;24.44;100.00
11077;BME280;5591;42.626;23.380;2022-09-30T10:01:40;94211.19;;;25.17;100.00
11077;BME280;5591;42.626;23.380;2022-09-30T10:04:09;94209.56;;;25.26;100.00
11077;BME280;5591;42.626;23.380;2022-09-30T10:06:42;94215.31;;;25.48;100.00
11077;BME280;5591;42.626;23.380;2022-09-30T10:09:21;94200.81;;;25.49;100.00
11077;BME280;5591;42.626;23.380;2022-09-30T10:11:49;94202.97;;;25.80;98.60
11077;BME280;5591;42.626;23.380;2022-09-30T10:14:19;94195.84;;;25.66;99.23
11077;BME280;5591;42.626;23.380;2022-09-30T10:16:47;94189.91;;;25.69;99.96
11077;BME280;5591;42.626;23.380;2022-09-30T10:19:20;94207.66;;;25.65;94.69
11077;BME280;5591;42.626;23.380;2022-09-30T10:21:47;94200.72;;;25.16;93.90
11077;BME280;5591;42.626;23.380;2022-09-30T10:24:27;94154.72;;;25.27;89.89
11077;BME280;5591;42.626;23.380;2022-09-30T10:26:54;94196.66;;;26.23;84.91
11077;BME280;5591;42.626;23.380;2022-09-30T10:29:28;94207.97;;;26.49;81.42
11077;BME280;5591;42.626;23.380;2022-09-30T10:31:56;94181.56;;;26.74;80.09
11077;BME280;5591;42.626;23.380;2022-09-30T10:34:26;94180.44;;;26.80;77.51
11077;BME280;5591;42.626;23.380;2022-09-30T10:36:55;94177.50;;;26.77;78.11
11077;BME280;5591;42.626;23.380;2022-09-30T10:39:25;94155.25;;;26.19;73.61
11077;BME280;5591;42.626;23.380;2022-09-30T10:42:01;94189.56;;;25.42;80.12
11077;BME280;5591;42.626;23.380;2022-09-30T10:44:30;94195.81;;;25.28;79.88
11077;BME280;5591;42.626;23.380;2022-09-30T10:47:00;94189.50;;;25.09;82.48
11077;BME280;5591;42.626;23.380;2022-09-30T10:49:30;94180.81;;;25.17;81.87
11077;BME280;5591;42.626;23.380;2022-09-30T10:51:59;94194.94;;;26.09;81.20
11077;BME280;5591;42.626;23.380;2022-09-30T10:54:35;94192.38;;;26.93;76.94
11077;BME280;5591;42.626;23.380;2022-09-30T10:57:13;94193.19;;;26.93;76.99
11077;BME280;5591;42.626;23.380;2022-09-30T10:59:43;94190.13;;;26.06;83.56
11077;BME280;5591;42.626;23.380;2022-09-30T11:02:21;94184.75;;;26.58;76.45
11077;BME280;5591;42.626;23.380;2022-09-30T11:04:53;94194.13;;;27.44;71.00
11077;BME280;5591;42.626;23.380;2022-09-30T11:07:28;94190.00;;;27.84;67.16
11077;BME280;5591;42.626;23.380;2022-09-30T11:09:59;94192.25;;;27.95;61.57
11077;BME280;5591;42.626;23.380;2022-09-30T11:12:34;94183.41;;;27.39;61.01
11077;BME280;5591;42.626;23.380;2022-09-30T11:15:12;94195.78;;;27.59;62.84
11077;BME280;5591;42.626;23.380;2022-09-30T11:17:49;94185.91;;;28.18;60.86
11077;BME280;5591;42.626;23.380;2022-09-30T11:20:21;94198.00;;;29.06;57.67
11077;BME280;5591;42.626;23.380;2022-09-30T11:22:54;94190.81;;;29.51;56.34
11077;BME280;5591;42.626;23.380;2022-09-30T11:25:27;94200.50;;;30.09;50.67
11077;BME280;5591;42.626;23.380;2022-09-30T11:28:10;94181.81;;;30.52;47.64
11077;BME280;5591;42.626;23.380;2022-09-30T11:30:47;94190.88;;;32.35;43.81
11077;BME280;5591;42.626;23.380;2022-09-30T11:33:27;94198.63;;;33.08;39.54
11077;BME280;5591;42.626;23.380;2022-09-30T11:36:03;94194.13;;;34.44;37.21
11077;BME280;5591;42.626;23.380;2022-09-30T11:38:51;94197.88;;;34.83;36.72
11077;BME280;5591;42.626;23.380;2022-09-30T11:41:22;94213.16;;;34.32;36.32
11077;BME280;5591;42.626;23.380;2022-09-30T11:43:59;94198.66;;;35.08;35.40
11077;BME280;5591;42.626;23.380;2022-09-30T11:46:49;94200.34;;;36.24;34.59
11077;BME280;5591;42.626;23.380;2022-09-30T11:49:36;94199.94;;;36.65;32.81
11077;BME280;5591;42.626;23.380;2022-09-30T11:52:13;94198.41;;;36.52;32.67
11077;BME280;5591;42.626;23.380;2022-09-30T11:54:53;94205.06;;;35.12;34.30
11077;BME280;5591;42.626;23.380;2022-09-30T11:57:27;94192.88;;;35.33;34.01
11077;BME280;5591;42.626;23.380;2022-09-30T12:00:01;94204.81;;;34.93;34.98
11077;BME280;5591;42.626;23.380;2022-09-30T12:02:33;94207.38;;;34.13;36.36
11077;BME280;5591;42.626;23.380;2022-09-30T12:05:06;94207.53;;;33.96;36.14
11077;BME280;5591;42.626;23.380;2022-09-30T12:07:40;94203.13;;;34.56;34.77
11077;BME280;5591;42.626;23.380;2022-09-30T12:10:18;94207.09;;;34.91;34.27
11077;BME280;5591;42.626;23.380;2022-09-30T12:12:49;94210.69;;;34.83;34.52
11077;BME280;5591;42.626;23.380;2022-09-30T12:15:19;94209.75;;;35.35;33.94
11077;BME280;5591;42.626;23.380;2022-09-30T12:17:53;94210.53;;;36.39;32.36
11077;BME280;5591;42.626;23.380;2022-09-30T12:20:26;94195.66;;;37.10;30.38
11077;BME280;5591;42.626;23.380;2022-09-30T12:22:59;94219.44;;;38.21;30.23
11077;BME280;5591;42.626;23.380;2022-09-30T12:25:30;94168.97;;;37.72;29.83
11077;BME280;5591;42.626;23.380;2022-09-30T12:28:04;94214.06;;;36.39;31.51
11077;BME280;5591;42.626;23.380;2022-09-30T12:30:59;94198.66;;;36.07;30.67
11077;BME280;5591;42.626;23.380;2022-09-30T12:33:41;94223.06;;;34.36;32.21
11077;BME280;5591;42.626;23.380;2022-09-30T12:39:43;94218.75;;;34.79;30.93
11077;BME280;5591;42.626;23.380;2022-09-30T12:45:50;94213.47;;;36.73;29.54
11077;BME280;5591;42.626;23.380;2022-09-30T12:48:22;94220.41;;;37.45;28.09
11077;BME280;5591;42.626;23.380;2022-09-30T12:50:55;94212.78;;;34.98;30.68
11077;BME280;5591;42.626;23.380;2022-09-30T12:53:25;94220.09;;;34.09;31.42
11077;BME280;5591;42.626;23.380;2022-09-30T12:55:53;94225.75;;;33.54;31.86
11077;BME280;5591;42.626;23.380;2022-09-30T12:58:24;94224.75;;;33.88;31.35
11077;BME280;5591;42.626;23.380;2022-09-30T13:01:00;94233.75;;;32.30;32.33
11077;BME280;5591;42.626;23.380;2022-09-30T13:03:43;94230.88;;;30.50;36.10
11077;BME280;5591;42.626;23.380;2022-09-30T13:06:13;94219.34;;;33.30;33.80
11077;BME280;5591;42.626;23.380;2022-09-30T13:08:47;94224.13;;;35.96;30.92
11077;BME280;5591;42.626;23.380;2022-09-30T13:11:36;94180.50;;;37.47;28.61
11077;BME280;5591;42.626;23.380;2022-09-30T13:14:31;94223.53;;;39.10;28.21
11077;BME280;5591;42.626;23.380;2022-09-30T13:17:24;94218.53;;;38.74;27.29
11077;BME280;5591;42.626;23.380;2022-09-30T13:19:52;94217.56;;;40.28;26.08
11077;BME280;5591;42.626;23.380;2022-09-30T13:22:54;94224.00;;;40.71;25.51
11077;BME280;5591;42.626;23.380;2022-09-30T13:25:21;94223.97;;;39.57;26.62
11077;BME280;5591;42.626;23.380;2022-09-30T13:27:50;94224.13;;;40.20;25.63
11077;BME280;5591;42.626;23.380;2022-09-30T13:30:34;94232.91;;;38.11;25.92
11077;BME280;5591;42.626;23.380;2022-09-30T13:33:31;94231.19;;;35.01;29.47
11077;BME280;5591;42.626;23.380;2022-09-30T13:36:16;94224.50;;;36.92;27.19
11077;BME280;5591;42.626;23.380;2022-09-30T13:38:44;94230.16;;;36.68;27.51
11077;BME280;5591;42.626;23.380;2022-09-30T13:41:19;94233.53;;;36.22;27.80
11077;BME280;5591;42.626;23.380;2022-09-30T13:43:57;94230.38;;;36.36;27.68
11077;BME280;5591;42.626;23.380;2022-09-30T13:46:29;94233.66;;;34.82;30.05
11077;BME280;5591;42.626;23.380;2022-09-30T13:49:04;94238.50;;;35.81;28.96
11077;BME280;5591;42.626;23.380;2022-09-30T13:51:36;94244.91;;;36.52;28.38
11077;BME280;5591;42.626;23.380;2022-09-30T13:54:13;94236.69;;;35.37;28.96
11077;BME280;5591;42.626;23.380;2022-09-30T13:56:45;94251.88;;;33.84;30.28
11077;BME280;5591;42.626;23.380;2022-09-30T13:59:38;94243.56;;;33.81;30.79
11077;BME280;5591;42.626;23.380;2022-09-30T14:05:16;94243.06;;;35.53;29.26
11077;BME280;5591;42.626;23.380;2022-09-30T14:08:00;94260.63;;;33.61;30.02
11077;BME280;5591;42.626;23.380;2022-09-30T14:10:40;94239.78;;;32.44;31.02
11077;BME280;5591;42.626;23.380;2022-09-30T14:13:23;94222.88;;;31.79;31.26
11077;BME280;5591;42.626;23.380;2022-09-30T14:16:16;94169.75;;;32.87;30.33
11077;BME280;5591;42.626;23.380;2022-09-30T14:19:11;94246.84;;;35.72;29.50
11077;BME280;5591;42.626;23.380;2022-09-30T14:21:42;94253.22;;;38.06;26.92
11077;BME280;5591;42.626;23.380;2022-09-30T14:24:11;94258.81;;;39.08;24.68
11077;BME280;5591;42.626;23.380;2022-09-30T14:26:59;94267.47;;;39.52;24.74
11077;BME280;5591;42.626;23.380;2022-09-30T14:29:38;94262.72;;;39.26;25.05
11077;BME280;5591;42.626;23.380;2022-09-30T14:32:11;94266.03;;;38.56;25.95
11077;BME280;5591;42.626;23.380;2022-09-30T14:34:39;94271.91;;;38.20;26.04
11077;BME280;5591;42.626;23.380;2022-09-30T14:37:14;94271.00;;;37.97;26.31
11077;BME280;5591;42.626;23.380;2022-09-30T14:39:46;94269.31;;;36.05;27.87
11077;BME280;5591;42.626;23.380;2022-09-30T14:42:21;94262.88;;;36.37;27.31
11077;BME280;5591;42.626;23.380;2022-09-30T14:44:53;94269.53;;;37.07;27.86
11077;BME280;5591;42.626;23.380;2022-09-30T14:47:21;94275.84;;;38.03;26.43
11077;BME280;5591;42.626;23.380;2022-09-30T14:49:51;94273.16;;;37.72;26.42
11077;BME280;5591;42.626;23.380;2022-09-30T14:52:35;94272.84;;;37.00;27.65
11077;BME280;5591;42.626;23.380;2022-09-30T14:55:03;94277.91;;;36.71;28.07
11077;BME280;5591;42.626;23.380;2022-09-30T14:57:31;94279.97;;;36.89;27.68
11077;BME280;5591;42.626;23.380;2022-09-30T15:00:18;94287.47;;;36.92;27.75
11077;BME280;5591;42.626;23.380;2022-09-30T15:02:45;94293.41;;;35.52;28.22
11077;BME280;5591;42.626;23.380;2022-09-30T15:05:12;94278.91;;;34.51;30.24
11077;BME280;5591;42.626;23.380;2022-09-30T15:07:42;94289.84;;;32.43;31.30
11077;BME280;5591;42.626;23.380;2022-09-30T15:10:16;94229.88;;;32.14;31.45
11077;BME280;5591;42.626;23.380;2022-09-30T15:12:46;94294.13;;;32.52;32.01
11077;BME280;5591;42.626;23.380;2022-09-30T15:15:32;94294.91;;;30.90;34.06
11077;BME280;5591;42.626;23.380;2022-09-30T15:17:59;94290.81;;;30.05;35.53
11077;BME280;5591;42.626;23.380;2022-09-30T15:20:30;94294.13;;;29.39;37.53
11077;BME280;5591;42.626;23.380;2022-09-30T15:23:00;94289.13;;;29.19;38.04
11077;BME280;5591;42.626;23.380;2022-09-30T15:25:29;94298.84;;;28.48;39.68
11077;BME280;5591;42.626;23.380;2022-09-30T15:27:58;94308.09;;;27.92;43.05
11077;BME280;5591;42.626;23.380;2022-09-30T15:30:27;94307.66;;;27.43;46.41
11077;BME280;5591;42.626;23.380;2022-09-30T15:32:59;94311.88;;;27.30;47.83